Time;durP1;ratioP1;P1;durP2;ratioP2;P2;SDS_P1;SDS_P2;PMS_P1;PMS_P2;Temp;Humidity;BMP_temperature;BMP_pressure;BME280_temperature;BME280_humidity;BME280_pressure;Samples;Min_cycle;Max_cycle;Signal;HPM_P1;HPM_P2
2022/12/27 03:05:11;;;;;;;12.33;11.63;;;3.00;99.90;;;;;;4912466;29;20592;-80
2022/12/27 03:07:46;;;;;;;12.40;11.70;;;2.90;99.90;;;;;;4917689;29;20192;-80
2022/12/27 03:16:17;;;;;;;13.27;12.47;;;2.70;99.90;;;;;;4898813;29;20508;-80
2022/12/27 03:18:59;;;;;;;12.80;12.00;;;2.60;99.90;;;;;;4897788;29;20228;-80
2022/12/27 03:27:02;;;;;;;12.90;12.00;;;2.50;99.90;;;;;;4877134;29;20205;-82
2022/12/27 03:35:09;;;;;;;12.30;11.60;;;2.50;99.90;;;;;;4897158;29;20628;-82
2022/12/27 03:40:33;;;;;;;13.50;12.63;;;2.40;99.90;;;;;;4895369;29;20203;-82
2022/12/27 03:43:09;;;;;;;12.97;12.27;;;2.50;99.90;;;;;;4897742;29;20235;-81
2022/12/27 03:49:06;;;;;;;12.60;11.90;;;2.50;99.90;;;;;;4902277;29;20461;-82
2022/12/27 03:51:37;;;;;;;12.47;11.77;;;2.50;99.90;;;;;;4888338;29;20288;-81
2022/12/27 03:54:08;;;;;;;12.30;11.60;;;2.40;99.90;;;;;;4896243;29;20204;-83
2022/12/27 03:56:36;;;;;;;12.20;11.53;;;2.40;99.90;;;;;;4896327;29;20197;-81
2022/12/27 03:59:04;;;;;;;12.00;11.33;;;2.30;99.90;;;;;;4897341;29;20260;-81
2022/12/27 04:01:30;;;;;;;13.00;12.10;;;2.30;99.90;;;;;;4895065;29;20228;-80
2022/12/27 04:03:57;;;;;;;13.33;12.53;;;2.20;99.90;;;;;;4897368;29;20472;-80
2022/12/27 04:06:24;;;;;;;13.10;12.30;;;2.20;99.90;;;;;;4897522;29;20204;-82
2022/12/27 04:36:16;;;;;;;14.00;13.20;;;1.90;99.90;;;;;;4895391;29;20728;-82
2022/12/27 04:38:43;;;;;;;13.37;12.57;;;1.90;99.90;;;;;;4892031;29;20564;-81
2022/12/27 04:55:00;;;;;;;14.53;13.57;;;1.80;99.90;;;;;;4894524;29;20544;-83
2022/12/27 04:57:28;;;;;;;14.80;13.80;;;1.80;99.90;;;;;;4895104;29;20468;-81
2022/12/27 05:02:40;;;;;;;16.33;14.93;;;1.80;99.90;;;;;;4892518;29;20646;-81
2022/12/27 05:05:09;;;;;;;16.27;14.97;;;1.80;99.90;;;;;;4893456;29;20454;-82
2022/12/27 05:16:09;;;;;;;17.40;16.00;;;1.90;99.90;;;;;;4881808;29;20544;-82
2022/12/27 05:18:36;;;;;;;16.80;15.70;;;1.90;99.90;;;;;;4899094;29;20540;-82
2022/12/27 05:21:05;;;;;;;17.10;15.60;;;1.90;99.90;;;;;;4897620;29;20474;-81
2022/12/27 05:26:32;;;;;;;16.00;14.90;;;1.90;99.90;;;;;;4822005;29;20471;-83
2022/12/27 05:29:01;;;;;;;16.20;14.80;;;2.00;99.90;;;;;;4843433;29;20496;-82
2022/12/27 05:31:29;;;;;;;15.90;14.70;;;2.00;99.90;;;;;;4857948;29;20551;-82
2022/12/27 05:33:56;;;;;;;16.27;15.07;;;2.00;99.90;;;;;;4903210;29;20880;-82
2022/12/27 05:36:24;;;;;;;15.70;14.60;;;2.00;99.90;;;;;;4897746;29;20514;-82
2022/12/27 05:38:51;;;;;;;15.07;13.97;;;2.00;99.90;;;;;;4898113;29;20997;-83
2022/12/27 05:41:18;;;;;;;15.23;14.13;;;2.00;99.90;;;;;;4897538;29;20480;-82
2022/12/27 05:43:45;;;;;;;14.50;13.50;;;2.10;99.90;;;;;;4898381;29;20521;-82
2022/12/27 05:46:15;;;;;;;14.67;13.73;;;2.10;99.90;;;;;;4898312;29;20238;-80
2022/12/27 05:48:42;;;;;;;14.60;13.70;;;2.10;99.90;;;;;;4899531;29;20444;-80
2022/12/27 05:51:12;;;;;;;14.03;13.13;;;2.10;99.90;;;;;;4898936;29;20306;-79
2022/12/27 05:53:39;;;;;;;13.50;12.70;;;2.10;99.90;;;;;;4899880;29;20448;-79
2022/12/27 05:56:07;;;;;;;13.70;12.80;;;2.10;99.90;;;;;;4898359;29;20461;-79
2022/12/27 05:58:35;;;;;;;13.80;12.77;;;2.10;99.90;;;;;;4898760;29;20907;-81
2022/12/27 06:01:07;;;;;;;14.03;13.13;;;2.00;99.90;;;;;;4896741;29;20543;-80
2022/12/27 06:03:35;;;;;;;13.97;13.00;;;2.00;99.90;;;;;;4897675;29;20456;-81
2022/12/27 06:06:03;;;;;;;13.90;12.90;;;2.00;99.90;;;;;;4897823;29;20487;-81
2022/12/27 06:08:31;;;;;;;14.17;13.37;;;2.00;99.90;;;;;;4893160;29;20599;-78
2022/12/27 06:11:07;;;;;;;13.30;12.50;;;2.00;99.90;;;;;;4890621;29;20473;-81
2022/12/27 06:13:34;;;;;;;13.80;13.00;;;1.90;99.90;;;;;;4898758;29;20504;-79
2022/12/27 06:16:02;;;;;;;13.83;12.93;;;1.90;99.90;;;;;;4899125;29;20492;-79
2022/12/27 06:18:29;;;;;;;14.00;13.00;;;1.80;99.90;;;;;;4898254;29;20472;-79
2022/12/27 06:21:02;;;;;;;13.77;12.80;;;1.80;99.90;;;;;;4897226;29;20973;-81
2022/12/27 06:23:29;;;;;;;14.57;13.67;;;1.80;99.90;;;;;;4896089;29;20464;-81
2022/12/27 06:25:56;;;;;;;14.27;13.33;;;1.80;99.90;;;;;;4898675;29;20449;-81
2022/12/27 06:28:23;;;;;;;13.90;13.03;;;1.80;99.90;;;;;;4898950;29;20440;-79
2022/12/27 06:30:50;;;;;;;15.10;13.80;;;1.80;99.90;;;;;;4897317;29;20481;-81
2022/12/27 06:33:17;;;;;;;13.83;13.03;;;1.70;99.90;;;;;;4897511;29;20457;-81
2022/12/27 06:35:43;;;;;;;14.40;13.50;;;1.70;99.90;;;;;;4897378;29;20445;-81
2022/12/27 06:38:11;;;;;;;14.47;13.67;;;1.60;99.90;;;;;;4898539;29;20570;-81
2022/12/27 06:40:38;;;;;;;14.33;13.53;;;1.60;99.90;;;;;;4896794;29;20590;-80
2022/12/27 06:43:05;;;;;;;14.67;13.77;;;1.60;99.90;;;;;;4898705;29;20448;-81
2022/12/27 06:45:32;;;;;;;14.53;13.63;;;1.60;99.90;;;;;;4897178;29;20512;-81
2022/12/27 06:47:59;;;;;;;14.13;13.30;;;1.50;99.90;;;;;;4898356;29;20460;-81
2022/12/27 06:50:26;;;;;;;14.37;13.30;;;1.50;99.90;;;;;;4896370;29;20700;-82
2022/12/27 06:52:52;;;;;;;14.97;13.90;;;1.40;99.90;;;;;;4899773;29;20571;-82
2022/12/27 06:55:21;;;;;;;14.60;13.80;;;1.30;99.90;;;;;;4897117;29;20484;-81
2022/12/27 06:57:48;;;;;;;15.50;14.40;;;1.30;99.90;;;;;;4897979;29;20864;-82
2022/12/27 07:00:16;;;;;;;15.73;14.73;;;1.20;99.90;;;;;;4896853;29;20553;-82
2022/12/27 07:02:43;;;;;;;15.30;14.20;;;1.20;99.90;;;;;;4896944;29;20520;-81
2022/12/27 07:05:10;;;;;;;15.30;14.20;;;1.30;99.90;;;;;;4896987;29;20457;-81
2022/12/27 07:07:36;;;;;;;15.63;14.63;;;1.30;99.90;;;;;;4897631;29;20993;-82
2022/12/27 07:10:04;;;;;;;15.43;14.43;;;1.20;99.90;;;;;;4896153;29;20516;-81
2022/12/27 07:12:32;;;;;;;15.30;14.40;;;1.20;99.90;;;;;;4897361;29;20460;-82
2022/12/27 07:14:59;;;;;;;15.73;14.63;;;1.20;99.90;;;;;;4896969;29;20716;-81
2022/12/27 07:17:25;;;;;;;15.93;14.73;;;1.20;99.90;;;;;;4896718;29;20451;-82
2022/12/27 07:19:52;;;;;;;15.77;14.67;;;1.30;99.90;;;;;;4895687;29;20491;-81
2022/12/27 07:22:19;;;;;;;15.23;14.23;;;1.20;99.90;;;;;;4896428;29;20535;-81
2022/12/27 07:24:46;;;;;;;14.27;13.23;;;1.30;99.90;;;;;;4897536;29;20940;-81
2022/12/27 07:27:14;;;;;;;15.00;14.10;;;1.30;99.90;;;;;;4896380;29;20551;-81
2022/12/27 07:29:42;;;;;;;15.53;14.53;;;1.20;99.90;;;;;;4897000;29;20480;-81
2022/12/27 07:32:08;;;;;;;15.07;14.07;;;1.30;99.90;;;;;;4896319;29;20472;-81
2022/12/27 07:34:35;;;;;;;15.00;14.10;;;1.30;99.90;;;;;;4897529;29;20504;-81
2022/12/27 07:37:02;;;;;;;16.27;15.27;;;1.30;99.90;;;;;;4896797;29;20968;-82
2022/12/27 07:39:32;;;;;;;14.97;14.07;;;1.30;99.90;;;;;;4895051;29;20486;-88
2022/12/27 07:41:59;;;;;;;14.50;13.60;;;1.30;99.90;;;;;;4897943;29;20483;-89
2022/12/27 07:44:26;;;;;;;14.53;13.60;;;1.30;99.90;;;;;;4897795;29;20462;-81
2022/12/27 07:46:54;;;;;;;15.17;14.27;;;1.40;99.90;;;;;;4897963;29;20932;-80
2022/12/27 07:49:21;;;;;;;15.13;14.17;;;1.40;99.90;;;;;;4897698;29;20440;-78
2022/12/27 07:51:48;;;;;;;15.47;14.37;;;1.50;99.90;;;;;;4898747;29;20846;-80
2022/12/27 07:54:14;;;;;;;15.97;14.80;;;1.50;99.90;;;;;;4896929;29;20464;-79
2022/12/27 07:56:41;;;;;;;16.57;15.40;;;1.50;99.90;;;;;;4898290;29;20477;-79
2022/12/27 07:59:12;;;;;;;16.17;15.17;;;1.60;99.90;;;;;;4892632;29;20572;-81
2022/12/27 08:02:02;;;;;;;16.30;15.10;;;1.60;99.90;;;;;;4899897;29;20488;-81
2022/12/27 08:04:31;;;;;;;17.30;16.13;;;1.70;99.90;;;;;;4888163;29;20456;-80
2022/12/27 08:07:02;;;;;;;17.13;15.80;;;1.90;99.90;;;;;;4891792;29;20512;-81
2022/12/27 08:09:32;;;;;;;17.13;15.83;;;2.00;99.90;;;;;;4896360;29;20255;-80
2022/12/27 08:11:59;;;;;;;16.10;15.10;;;2.10;99.90;;;;;;4895476;29;20512;-80
2022/12/27 08:14:25;;;;;;;16.20;15.10;;;2.30;99.90;;;;;;4895464;29;21017;-81
2022/12/27 08:16:52;;;;;;;16.43;15.33;;;2.40;99.90;;;;;;4889218;29;20518;-76
2022/12/27 08:19:19;;;;;;;15.33;14.27;;;2.70;99.90;;;;;;4894095;29;20481;-74
2022/12/27 08:21:48;;;;;;;15.40;14.43;;;2.90;99.90;;;;;;4895415;29;20233;-78
2022/12/27 08:24:15;;;;;;;15.07;14.07;;;3.20;99.90;;;;;;4894685;29;20260;-78
2022/12/27 08:26:42;;;;;;;15.37;14.47;;;3.40;99.90;;;;;;4896900;29;20224;-79
2022/12/27 08:29:08;;;;;;;15.30;14.33;;;3.60;99.90;;;;;;4896388;29;20204;-79
2022/12/27 08:31:35;;;;;;;15.40;14.10;;;3.80;99.90;;;;;;4894911;29;20315;-79
2022/12/27 08:34:03;;;;;;;14.70;13.80;;;3.90;99.90;;;;;;4895352;29;20247;-78
2022/12/27 08:36:29;;;;;;;14.57;13.63;;;4.10;99.90;;;;;;4890986;29;20200;-79
2022/12/27 08:38:57;;;;;;;14.13;13.33;;;4.40;99.90;;;;;;4896644;29;20273;-78
2022/12/27 08:41:24;;;;;;;14.33;13.33;;;4.70;99.90;;;;;;4894799;29;20227;-77
2022/12/27 08:43:51;;;;;;;14.30;13.07;;;4.90;99.90;;;;;;4889704;29;20232;-78
2022/12/27 08:46:18;;;;;;;13.80;12.90;;;5.20;99.90;;;;;;4892358;29;20205;-78
2022/12/27 08:48:47;;;;;;;13.90;13.00;;;5.40;99.90;;;;;;4895280;29;20212;-78
2022/12/27 08:51:14;;;;;;;13.40;12.60;;;5.50;99.90;;;;;;4895409;29;20221;-79
2022/12/27 08:53:41;;;;;;;13.40;12.60;;;5.70;99.90;;;;;;4895602;29;20260;-80
2022/12/27 08:56:09;;;;;;;14.10;13.07;;;5.70;99.90;;;;;;4888160;29;20217;-80
2022/12/27 08:58:36;;;;;;;13.50;12.63;;;5.60;99.90;;;;;;4897162;29;20199;-79
2022/12/27 09:01:07;;;;;;;14.13;13.10;;;5.60;99.90;;;;;;4896488;29;20658;-78
2022/12/27 09:03:33;;;;;;;13.20;12.40;;;5.60;99.90;;;;;;4894506;29;20340;-78
2022/12/27 09:06:08;;;;;;;13.67;12.77;;;5.60;99.90;;;;;;4895619;29;20294;-78
2022/12/27 09:08:35;;;;;;;13.70;12.90;;;5.60;99.90;;;;;;4895598;29;20562;-78
2022/12/27 09:11:14;;;;;;;13.40;12.60;;;5.60;99.90;;;;;;4894703;29;20222;-79
2022/12/27 09:13:42;;;;;;;13.20;12.20;;;5.70;99.90;;;;;;4896906;29;20572;-79
2022/12/27 09:16:10;;;;;;;13.20;12.40;;;5.70;99.90;;;;;;4897823;29;20238;-79
2022/12/27 09:18:37;;;;;;;13.50;12.60;;;5.70;99.90;;;;;;4897862;29;20289;-79
2022/12/27 09:21:09;;;;;;;13.30;12.50;;;5.60;99.90;;;;;;4894920;29;20232;-79
2022/12/27 09:23:37;;;;;;;13.03;12.30;;;5.60;99.90;;;;;;4889223;29;20202;-79
2022/12/27 09:26:08;;;;;;;13.30;12.50;;;5.50;99.90;;;;;;4895456;29;20211;-80
2022/12/27 09:28:36;;;;;;;13.30;12.60;;;5.60;99.90;;;;;;4895662;29;20210;-79
2022/12/27 09:31:04;;;;;;;14.43;13.23;;;5.60;99.90;;;;;;4896130;29;20653;-79
2022/12/27 09:33:31;;;;;;;13.23;12.43;;;5.60;99.90;;;;;;4896745;29;20202;-79
2022/12/27 09:36:02;;;;;;;13.83;12.90;;;5.60;99.90;;;;;;4896132;29;20642;-80
2022/12/27 09:38:29;;;;;;;13.10;12.20;;;5.60;99.90;;;;;;4898989;29;20265;-79
2022/12/27 09:40:59;;;;;;;13.93;13.03;;;5.60;99.90;;;;;;4899336;29;20257;-79
2022/12/27 09:43:38;;;;;;;13.10;12.30;;;5.60;99.90;;;;;;4898919;29;20827;-79
2022/12/27 09:46:12;;;;;;;13.70;12.90;;;5.60;99.90;;;;;;4898928;29;20208;-79
2022/12/27 09:48:40;;;;;;;13.70;12.90;;;5.70;99.90;;;;;;4898022;29;20725;-79
2022/12/27 09:51:13;;;;;;;13.63;12.83;;;5.70;99.90;;;;;;4897406;29;20252;-80
2022/12/27 09:53:46;;;;;;;13.47;12.57;;;5.70;99.90;;;;;;4900423;29;20265;-79
2022/12/27 09:56:24;;;;;;;14.23;13.17;;;5.70;99.90;;;;;;4898179;29;20280;-81
2022/12/27 09:58:54;;;;;;;14.17;13.07;;;5.80;99.90;;;;;;4898303;29;20206;-81
2022/12/27 10:01:26;;;;;;;14.33;13.43;;;5.80;99.90;;;;;;4896910;29;20241;-81
2022/12/27 10:03:54;;;;;;;14.33;13.43;;;5.90;99.90;;;;;;4897368;29;20211;-80
2022/12/27 10:06:48;;;;;;;13.67;12.87;;;6.00;99.90;;;;;;4897498;29;20214;-80
2022/12/27 10:09:42;;;;;;;13.77;12.87;;;6.00;99.90;;;;;;4899182;29;20202;-80
2022/12/27 10:12:21;;;;;;;14.20;13.30;;;6.00;99.90;;;;;;4889688;29;20230;-81
2022/12/27 10:15:07;;;;;;;13.70;12.90;;;6.00;99.90;;;;;;4895623;29;20575;-79
2022/12/27 10:17:45;;;;;;;13.77;12.87;;;6.00;99.90;;;;;;4898356;29;20268;-77
2022/12/27 10:20:21;;;;;;;14.23;13.10;;;6.00;99.90;;;;;;4903516;29;20222;-78
2022/12/27 10:22:52;;;;;;;14.40;13.50;;;6.00;99.90;;;;;;4899060;29;20296;-78
2022/12/27 10:25:21;;;;;;;13.50;12.60;;;6.10;99.90;;;;;;4898293;29;20214;-78
2022/12/27 10:27:49;;;;;;;13.97;13.17;;;6.10;99.90;;;;;;4898138;29;20294;-79
2022/12/27 10:30:21;;;;;;;13.70;12.80;;;6.20;99.90;;;;;;4898332;29;20230;-78
2022/12/27 10:32:49;;;;;;;13.47;12.60;;;6.30;99.90;;;;;;4896372;29;20841;-78
2022/12/27 10:35:17;;;;;;;13.47;12.70;;;6.30;99.90;;;;;;4898297;29;20859;-78
2022/12/27 10:37:45;;;;;;;13.87;12.97;;;6.40;99.90;;;;;;4893858;29;20283;-78
2022/12/27 10:40:18;;;;;;;13.23;12.43;;;6.40;99.90;;;;;;4896470;29;20667;-80
2022/12/27 10:42:51;;;;;;;13.23;12.43;;;6.50;99.90;;;;;;4897465;29;20226;-78
2022/12/27 10:45:28;;;;;;;13.10;12.30;;;6.50;99.90;;;;;;4899396;29;20271;-78
2022/12/27 10:47:59;;;;;;;13.10;12.30;;;6.60;99.90;;;;;;4897284;29;20211;-78
2022/12/27 10:50:32;;;;;;;12.90;11.93;;;6.70;99.90;;;;;;4898395;29;20267;-79
2022/12/27 10:52:59;;;;;;;13.30;12.30;;;6.70;99.90;;;;;;4899732;29;20279;-78
2022/12/27 10:55:35;;;;;;;13.53;12.70;;;6.80;99.90;;;;;;4898562;29;20225;-77
2022/12/27 10:58:19;;;;;;;13.97;13.07;;;6.80;99.90;;;;;;4899479;29;20250;-79
2022/12/27 11:00:55;;;;;;;12.90;12.20;;;6.80;99.90;;;;;;4899405;29;21005;-81
2022/12/27 11:03:21;;;;;;;14.13;13.10;;;6.90;99.90;;;;;;4897281;29;20264;-80
2022/12/27 11:06:01;;;;;;;13.90;12.90;;;6.90;99.90;;;;;;4898818;29;20274;-80
2022/12/27 11:08:28;;;;;;;13.60;12.80;;;7.00;99.90;;;;;;4896817;29;20200;-81
2022/12/27 11:11:15;;;;;;;13.80;12.90;;;7.10;99.90;;;;;;4897498;29;20227;-81
2022/12/27 11:13:44;;;;;;;13.50;12.70;;;7.10;99.90;;;;;;4898401;29;20254;-81
2022/12/27 11:16:18;;;;;;;13.63;12.93;;;7.20;99.90;;;;;;4898092;29;20583;-81
2022/12/27 11:18:48;;;;;;;13.87;13.07;;;7.20;99.90;;;;;;4898814;29;20207;-80
2022/12/27 11:21:16;;;;;;;13.80;13.00;;;7.20;99.90;;;;;;4896604;29;20238;-81
2022/12/27 11:23:45;;;;;;;13.80;13.00;;;7.20;99.90;;;;;;4899357;29;20237;-81
2022/12/27 11:26:23;;;;;;;13.67;12.67;;;7.30;99.90;;;;;;4898243;29;20701;-80
2022/12/27 11:28:53;;;;;;;13.53;12.60;;;7.30;99.90;;;;;;4898891;29;20822;-82
2022/12/27 11:31:31;;;;;;;13.33;12.53;;;7.30;99.90;;;;;;4896912;29;20697;-81
2022/12/27 11:34:00;;;;;;;13.57;12.77;;;7.40;99.90;;;;;;4899433;29;20211;-80
2022/12/27 11:36:31;;;;;;;13.00;12.30;;;7.40;99.90;;;;;;4897321;29;20207;-80
2022/12/27 11:38:59;;;;;;;13.53;12.63;;;7.40;99.90;;;;;;4897606;29;20684;-81
2022/12/27 11:41:34;;;;;;;13.13;12.43;;;7.50;99.90;;;;;;4897267;29;20220;-78
2022/12/27 11:44:09;;;;;;;13.20;12.40;;;7.50;99.90;;;;;;4894400;29;20208;-81
2022/12/27 11:46:41;;;;;;;12.90;11.90;;;7.60;99.90;;;;;;4894862;29;20232;-81
2022/12/27 11:49:17;;;;;;;12.70;11.90;;;7.60;99.90;;;;;;4901129;29;20258;-81
2022/12/27 11:52:05;;;;;;;12.33;11.50;;;7.70;99.90;;;;;;4897033;29;20231;-76
2022/12/27 11:54:54;;;;;;;12.73;11.93;;;7.70;99.90;;;;;;4880839;29;20189;-77
2022/12/27 11:57:35;;;;;;;12.40;11.60;;;7.80;99.90;;;;;;4881313;29;20197;-77
2022/12/27 12:00:11;;;;;;;12.40;11.70;;;7.70;99.90;;;;;;4878780;29;20213;-77
2022/12/27 12:03:11;;;;;;;12.80;11.83;;;7.70;99.90;;;;;;4883545;29;20282;-81
2022/12/27 12:05:48;;;;;;;12.20;11.50;;;7.60;99.90;;;;;;4899292;29;20196;-77
2022/12/27 12:08:34;;;;;;;12.20;11.50;;;7.70;99.90;;;;;;4896101;29;20201;-78
2022/12/27 12:11:14;;;;;;;12.10;11.40;;;7.60;99.90;;;;;;4893656;29;20761;-78
2022/12/27 12:13:57;;;;;;;12.00;11.30;;;7.60;99.90;;;;;;4893768;29;20196;-79
2022/12/27 12:16:44;;;;;;;12.13;11.43;;;7.60;99.90;;;;;;4899874;29;20200;-80
2022/12/27 12:19:35;;;;;;;11.87;11.10;;;7.60;99.90;;;;;;4899804;29;20197;-79
2022/12/27 12:22:22;;;;;;;11.20;10.33;;;7.50;99.90;;;;;;4897044;29;20221;-79
2022/12/27 12:25:05;;;;;;;11.10;10.50;;;7.50;99.90;;;;;;4899275;29;20743;-80
2022/12/27 12:28:02;;;;;;;10.77;10.17;;;7.40;99.90;;;;;;4901036;29;20204;-79
2022/12/27 12:30:49;;;;;;;11.00;10.30;;;7.40;99.90;;;;;;4892155;29;20626;-83
2022/12/27 12:33:49;;;;;;;10.77;10.07;;;7.50;99.90;;;;;;4899155;29;20212;-81
2022/12/27 12:36:35;;;;;;;10.40;9.80;;;7.60;99.90;;;;;;4893003;29;20212;-79
2022/12/27 12:39:11;;;;;;;11.00;10.30;;;7.70;99.90;;;;;;4897654;29;20212;-79
2022/12/27 12:42:08;;;;;;;10.53;9.83;;;7.80;99.90;;;;;;4899361;29;20264;-79
2022/12/27 12:44:54;;;;;;;10.40;9.70;;;7.80;99.90;;;;;;4901370;29;20189;-78
2022/12/27 12:47:39;;;;;;;10.27;9.67;;;7.90;99.90;;;;;;4899433;29;20200;-78
2022/12/27 12:50:29;;;;;;;10.30;9.70;;;7.90;99.90;;;;;;4900667;29;20674;-79
2022/12/27 12:53:21;;;;;;;10.50;9.70;;;8.00;99.90;;;;;;4900762;29;20208;-79
2022/12/27 12:56:00;;;;;;;10.27;9.67;;;8.10;99.90;;;;;;4894174;29;20280;-79
2022/12/27 12:58:45;;;;;;;9.93;9.43;;;8.10;99.90;;;;;;4895576;29;20204;-79
2022/12/27 13:01:26;;;;;;;10.50;9.80;;;8.10;99.90;;;;;;4898246;29;20689;-79
2022/12/27 13:04:28;;;;;;;10.33;9.70;;;8.10;99.90;;;;;;4901749;29;20204;-78
2022/12/27 13:07:14;;;;;;;10.30;9.70;;;8.10;99.90;;;;;;4894820;29;20204;-81
2022/12/27 13:09:55;;;;;;;10.20;9.60;;;8.00;99.90;;;;;;4898265;29;20197;-81
2022/12/27 13:12:30;;;;;;;10.37;9.73;;;7.90;99.90;;;;;;4899334;29;20845;-81
2022/12/27 13:15:16;;;;;;;10.23;9.63;;;7.80;99.90;;;;;;4895841;29;20207;-81
2022/12/27 13:17:55;;;;;;;10.00;9.40;;;7.80;99.90;;;;;;4898300;29;20248;-81
2022/12/27 13:20:44;;;;;;;10.20;9.60;;;7.80;99.90;;;;;;4899139;29;20905;-79
2022/12/27 13:23:23;;;;;;;10.17;9.57;;;7.70;99.90;;;;;;4896329;29;20205;-80
2022/12/27 13:25:58;;;;;;;10.40;9.60;;;7.60;99.90;;;;;;4898213;29;20208;-80
2022/12/27 13:28:36;;;;;;;10.53;9.80;;;7.50;99.90;;;;;;4900167;29;20195;-80
2022/12/27 13:31:10;;;;;;;10.30;9.63;;;7.50;99.90;;;;;;4897617;29;20243;-80
2022/12/27 13:33:48;;;;;;;10.10;9.50;;;7.40;99.90;;;;;;4898915;29;20209;-82
2022/12/27 13:36:24;;;;;;;10.17;9.57;;;7.40;99.90;;;;;;4888976;29;20328;-80
2022/12/27 13:39:13;;;;;;;10.37;9.60;;;7.30;99.90;;;;;;4898573;29;20212;-80
2022/12/27 13:41:58;;;;;;;10.30;9.70;;;7.30;99.90;;;;;;4895095;29;20315;-81
2022/12/27 13:44:38;;;;;;;9.93;9.33;;;7.30;99.90;;;;;;4898398;29;20212;-81
2022/12/27 13:47:36;;;;;;;10.30;9.60;;;7.30;99.90;;;;;;4897351;29;20219;-82
2022/12/27 13:50:39;;;;;;;10.20;9.60;;;7.30;99.90;;;;;;4898190;29;20216;-81
2022/12/27 13:53:27;;;;;;;10.37;9.77;;;7.20;99.90;;;;;;4899997;29;20666;-81
2022/12/27 13:56:00;;;;;;;10.10;9.50;;;7.20;99.90;;;;;;4894293;29;20673;-80
2022/12/27 13:59:21;;;;;;;10.30;9.60;;;7.10;99.90;;;;;;4897179;29;20215;-80
2022/12/27 14:02:16;;;;;;;10.90;10.20;;;7.10;99.90;;;;;;4885734;29;20270;-80
2022/12/27 14:05:03;;;;;;;11.90;11.20;;;7.00;99.90;;;;;;4896401;29;20203;-77
2022/12/27 14:07:47;;;;;;;11.70;11.00;;;7.00;99.90;;;;;;4895574;29;20267;-77
2022/12/27 14:10:23;;;;;;;11.40;10.80;;;6.90;99.90;;;;;;4901988;29;20271;-79
2022/12/27 14:13:01;;;;;;;12.27;11.37;;;6.90;99.90;;;;;;4897607;29;20210;-79
2022/12/27 14:15:51;;;;;;;11.90;11.20;;;6.80;99.90;;;;;;4891325;29;20306;-79
2022/12/27 14:18:28;;;;;;;12.10;11.40;;;6.80;99.90;;;;;;4883383;29;20263;-79
2022/12/27 14:21:13;;;;;;;11.50;10.90;;;6.80;99.90;;;;;;4884359;29;20303;-78
2022/12/27 14:23:52;;;;;;;11.53;10.90;;;6.70;99.90;;;;;;4906187;29;20204;-79
2022/12/27 14:26:56;;;;;;;11.97;11.37;;;6.70;99.90;;;;;;4899579;29;20256;-79
2022/12/27 14:30:01;;;;;;;12.23;11.53;;;6.60;99.90;;;;;;4892085;29;20734;-78
2022/12/27 14:32:46;;;;;;;12.20;11.50;;;6.60;99.90;;;;;;4888505;29;20230;-79
2022/12/27 14:35:56;;;;;;;12.40;11.60;;;6.50;99.90;;;;;;4897398;29;20207;-78
2022/12/27 14:38:45;;;;;;;11.77;11.10;;;6.50;99.90;;;;;;4897577;29;20648;-79
2022/12/27 14:41:49;;;;;;;11.60;11.00;;;6.40;99.90;;;;;;4898128;29;20291;-79
2022/12/27 14:44:39;;;;;;;13.10;12.20;;;6.40;99.90;;;;;;4895413;29;20210;-80
2022/12/27 14:47:31;;;;;;;13.33;12.43;;;6.30;99.90;;;;;;4900265;29;20203;-79
2022/12/27 14:50:41;;;;;;;12.20;11.50;;;6.30;99.90;;;;;;4892350;29;20262;-79
2022/12/27 14:53:37;;;;;;;14.07;13.07;;;6.30;99.90;;;;;;4836222;29;20221;-80
2022/12/27 14:56:15;;;;;;;14.23;13.23;;;6.20;99.90;;;;;;4892604;29;20204;-79
2022/12/27 14:58:59;;;;;;;13.77;12.83;;;6.10;99.90;;;;;;4903211;29;20706;-80
2022/12/27 15:01:44;;;;;;;13.97;12.83;;;6.10;99.90;;;;;;4885179;29;20707;-81
2022/12/27 15:04:36;;;;;;;14.07;13.13;;;6.00;99.90;;;;;;4898473;29;20259;-79
2022/12/27 15:07:26;;;;;;;14.73;13.63;;;6.00;99.90;;;;;;4882333;29;20274;-78
2022/12/27 15:10:03;;;;;;;16.07;14.70;;;5.90;99.90;;;;;;4890932;29;20207;-80
2022/12/27 15:12:39;;;;;;;15.17;14.07;;;5.80;99.90;;;;;;4889474;29;20269;-78
2022/12/27 15:15:20;;;;;;;15.17;13.97;;;5.80;99.90;;;;;;4898274;29;20214;-79
2022/12/27 15:18:03;;;;;;;15.23;13.83;;;5.70;99.90;;;;;;4900625;29;20634;-77
2022/12/27 15:21:04;;;;;;;13.70;12.80;;;5.60;99.90;;;;;;4897294;29;20224;-81
2022/12/27 15:23:41;;;;;;;14.50;13.40;;;5.60;99.90;;;;;;4889641;29;20257;-78
2022/12/27 15:26:19;;;;;;;15.20;14.00;;;5.50;99.90;;;;;;4885473;29;20209;-79
2022/12/27 15:28:58;;;;;;;14.83;13.57;;;5.40;99.90;;;;;;4889281;29;20210;-78
2022/12/27 15:31:37;;;;;;;15.47;13.97;;;5.40;99.90;;;;;;4902527;29;20249;-79
2022/12/27 15:34:21;;;;;;;16.57;14.93;;;5.30;99.90;;;;;;4887091;29;20210;-79
2022/12/27 15:36:50;;;;;;;16.30;14.70;;;5.20;99.90;;;;;;4888985;29;20674;-79
2022/12/27 15:39:47;;;;;;;16.53;14.87;;;5.10;99.90;;;;;;4896168;29;20214;-79
2022/12/27 15:42:33;;;;;;;17.50;15.73;;;5.10;99.90;;;;;;4886177;29;20289;-77
2022/12/27 15:45:06;;;;;;;19.03;17.10;;;5.00;99.90;;;;;;4897934;29;20205;-78
2022/12/27 15:48:12;;;;;;;20.00;18.00;;;4.90;99.90;;;;;;4912650;29;20261;-78
2022/12/27 15:50:50;;;;;;;18.80;16.87;;;4.80;99.90;;;;;;4895981;29;20267;-77
2022/12/27 15:53:29;;;;;;;18.10;16.37;;;4.80;99.90;;;;;;4897785;29;20195;-77
2022/12/27 15:56:15;;;;;;;17.77;16.07;;;4.70;99.90;;;;;;4896541;29;20225;-77
2022/12/27 15:59:02;;;;;;;17.70;16.17;;;4.70;99.90;;;;;;4889260;29;20275;-78
2022/12/27 16:01:30;;;;;;;16.40;15.00;;;4.70;99.90;;;;;;4891122;29;20326;-77
2022/12/27 16:03:58;;;;;;;17.43;15.83;;;4.60;99.90;;;;;;4898334;29;20204;-76
2022/12/27 16:06:51;;;;;;;17.10;15.70;;;4.70;99.90;;;;;;4899980;29;20197;-77
2022/12/27 16:09:25;;;;;;;17.13;15.73;;;4.60;99.90;;;;;;4898854;29;20257;-77
2022/12/27 16:12:02;;;;;;;18.50;16.77;;;4.50;99.90;;;;;;4899564;29;20343;-77
2022/12/27 16:14:32;;;;;;;18.70;16.97;;;4.50;99.90;;;;;;4895128;29;20207;-77
2022/12/27 16:17:20;;;;;;;23.03;21.13;;;4.50;99.90;;;;;;4890761;29;20205;-78
2022/12/27 16:20:00;;;;;;;20.97;18.97;;;4.50;99.90;;;;;;4889706;29;20241;-78
2022/12/27 16:22:32;;;;;;;19.07;17.13;;;4.50;99.90;;;;;;4896970;29;20228;-77
2022/12/27 16:24:59;;;;;;;18.93;17.07;;;4.50;99.90;;;;;;4897781;29;20204;-78
2022/12/27 16:27:32;;;;;;;18.90;17.07;;;4.50;99.90;;;;;;4885228;29;20561;-78
2022/12/27 16:30:00;;;;;;;18.87;17.27;;;4.50;99.90;;;;;;4896674;29;20212;-78
2022/12/27 16:32:28;;;;;;;19.83;18.00;;;4.40;99.90;;;;;;4895847;29;20215;-78
2022/12/27 16:35:10;;;;;;;20.87;18.87;;;4.40;99.90;;;;;;4896098;29;20260;-78
2022/12/27 16:37:41;;;;;;;19.13;17.43;;;4.40;99.90;;;;;;4896265;29;20269;-78
2022/12/27 16:40:36;;;;;;;18.80;17.10;;;4.30;99.90;;;;;;4895519;29;20254;-78
2022/12/27 16:43:39;;;;;;;18.97;17.27;;;4.20;99.90;;;;;;4897349;29;20220;-78
2022/12/27 16:46:17;;;;;;;17.97;16.47;;;4.20;99.90;;;;;;4897040;29;20207;-77
2022/12/27 16:49:02;;;;;;;18.43;16.73;;;4.10;99.90;;;;;;4896855;29;20268;-76
2022/12/27 16:51:53;;;;;;;18.93;17.13;;;4.00;99.90;;;;;;4891223;29;20224;-76
2022/12/27 16:54:31;;;;;;;18.03;16.33;;;4.00;99.90;;;;;;4898201;29;20198;-76
2022/12/27 16:57:30;;;;;;;19.23;17.43;;;3.90;99.90;;;;;;4904634;29;20294;-79
2022/12/27 17:00:00;;;;;;;18.63;16.67;;;3.90;99.90;;;;;;4889962;29;20204;-80
2022/12/27 17:02:32;;;;;;;17.27;15.87;;;3.80;99.90;;;;;;4896240;29;20220;-78
2022/12/27 17:05:00;;;;;;;17.23;15.63;;;3.80;99.90;;;;;;4894291;29;20689;-79
2022/12/27 17:07:50;;;;;;;17.13;15.77;;;3.80;99.90;;;;;;4911923;29;20632;-78
2022/12/27 17:10:34;;;;;;;18.80;16.87;;;3.80;99.90;;;;;;4895394;29;20212;-79
2022/12/27 17:13:10;;;;;;;17.80;16.40;;;3.80;99.90;;;;;;4895286;29;20197;-78
2022/12/27 17:15:41;;;;;;;17.90;16.30;;;3.80;99.90;;;;;;4910834;29;20197;-78
2022/12/27 17:18:24;;;;;;;16.67;15.30;;;3.80;99.90;;;;;;4900554;29;20201;-78
2022/12/27 17:21:00;;;;;;;17.20;15.63;;;3.70;99.90;;;;;;4885333;29;20236;-79
2022/12/27 17:23:28;;;;;;;16.37;14.87;;;3.60;99.90;;;;;;4904745;29;20279;-79
2022/12/27 17:26:09;;;;;;;17.00;15.30;;;3.60;99.90;;;;;;4888378;29;20205;-79
2022/12/27 17:28:43;;;;;;;17.13;15.73;;;3.50;99.90;;;;;;4888649;29;20256;-79
2022/12/27 17:31:15;;;;;;;17.47;15.93;;;3.50;99.90;;;;;;4893114;29;20288;-77
2022/12/27 17:33:58;;;;;;;17.23;15.63;;;3.50;99.90;;;;;;4889920;29;20201;-76
2022/12/27 17:36:40;;;;;;;17.40;15.83;;;3.50;99.90;;;;;;4897063;29;20210;-76
2022/12/27 17:39:23;;;;;;;16.17;14.87;;;3.40;99.90;;;;;;4888045;29;20213;-78
2022/12/27 17:45:03;;;;;;;39.17;28.60;;;3.20;99.90;;;;;;4903369;29;20205;-78
2022/12/27 17:47:42;;;;;;;22.97;20.43;;;3.10;99.90;;;;;;4887847;29;20284;-78